Airfield :
LOGIN :

Register | Disclaimer

   EN    FR    IT 

 










Legend :    VFR   Marginal VFR   IFR   Intensive IFR   Very Intensive IFR
Visi :
Ceiling :
>= 8 km
>= 3000ft
5 to 8 km
1000 to 3000 ft
1500m to 5 km
500 to 1000 ft
800 to 1500m
200 to 500 ft
< 800m
< 200 ft
Symbols :   Thunderstorms  Fog  Heavy snow  Heavy precipitations  Wind > 20 kt
SIGMETs :     Misc.  Thunderstorms  Icing  Turbulence  Mountain Waves  Volcanic Ashes







- Airport Elevation : 183 ft
- IATA code : HAJ


EDDV - Hanover/Langenhagen Int.

CURRENT METAR :
  • 222220Z 28016KT 240V310 9999 BKN042 13/07 Q1023

EXPIRED METARs :
  • 222150Z 29014G26KT 260V320 9999 BKN043 13/07 Q1023
  • 222120Z 29013KT 250V320 9999 FEW044 BKN047 13/07 Q1023
  • 222050Z 29014KT 9999 FEW044 BKN048 13/06 Q1023 NOSIG
  • 222020Z 29013KT 9999 FEW038 BKN047 13/07 Q1023 NOSIG
  • 221950Z 29015KT 9999 FEW038 BKN050 14/07 Q1023 NOSIG

TAF TAF EDDV
Valid from the 22 at 18:00 until the 23 at 18:00 UTC


221700Z 2218/2318 30015G25KT 9999 SCT025 BKN035
BECMG 2219/2221 28010KT
TEMPO 2304/2308 BKN012
PROB30
TEMPO 2305/2308 4500 -DZRA BKN008
BECMG 2307/2309 31015G25KT
BECMG 2314/2316 30010KT
No reported NOTAMs for that airfield.



MET'MAP, your aeronautical weather chart ! - Copyright ORBIFLY December 2007 - Disclaimer

ORBIFLY MET'MAP TEAM :

Programming & Development : Alexandra Zaïnal
Concept & Development : Baudouin d'Aumeries
Co-Development & Prog : Marc-Olivier Méhu
Technical & hardware support : Manuel Goepfert

Contact : metmap@orbifly.com




SOURCES & CREDITS :

   NOAA